createdAt,value
2019-05-26T00:00:47.405Z,9.60
2019-05-26T00:03:50.916Z,9.50
2019-05-26T00:06:54.402Z,9.50
2019-05-26T00:09:57.880Z,9.50
2019-05-26T00:13:01.329Z,9.50
2019-05-26T00:16:04.801Z,9.50
2019-05-26T00:19:08.245Z,9.60
2019-05-26T00:22:11.727Z,9.60
2019-05-26T00:25:15.588Z,9.60
2019-05-26T00:28:19.076Z,9.60
2019-05-26T00:31:22.596Z,9.60
2019-05-26T00:34:26.103Z,9.70
2019-05-26T00:37:47.376Z,9.70
2019-05-26T00:40:34.891Z,9.80
2019-05-26T00:43:38.380Z,9.90
2019-05-26T00:46:41.897Z,9.80
2019-05-26T00:49:45.372Z,9.70
2019-05-26T00:52:48.922Z,9.50
2019-05-26T00:55:52.552Z,9.40
2019-05-26T00:58:56.013Z,9.40
2019-05-26T01:01:59.488Z,9.40
2019-05-26T01:05:03.373Z,9.40
2019-05-26T01:08:08.005Z,9.40
2019-05-26T01:11:11.457Z,9.50
2019-05-26T01:14:15.072Z,9.50
2019-05-26T01:17:18.618Z,9.50
2019-05-26T01:20:22.312Z,9.50
2019-05-26T01:23:25.760Z,9.60
2019-05-26T01:26:29.318Z,9.60
2019-05-26T01:29:32.765Z,9.50
2019-05-26T01:32:36.244Z,9.60
2019-05-26T01:35:40.718Z,9.60
2019-05-26T01:38:44.737Z,9.60
2019-05-26T01:41:48.265Z,9.60
2019-05-26T01:44:51.736Z,9.70
2019-05-26T01:47:55.460Z,9.60
2019-05-26T01:50:58.945Z,9.60
2019-05-26T01:54:02.492Z,9.60
2019-05-26T01:57:05.973Z,9.60
2019-05-26T02:00:09.881Z,9.50
2019-05-26T02:03:13.412Z,9.50
2019-05-26T02:06:16.856Z,9.50
2019-05-26T02:09:20.332Z,9.50
2019-05-26T02:12:23.880Z,9.60
2019-05-26T02:15:27.805Z,9.60
2019-05-26T02:18:31.397Z,9.60
2019-05-26T02:21:34.876Z,9.60
2019-05-26T02:24:38.321Z,9.60
2019-05-26T02:27:41.876Z,9.70
2019-05-26T02:30:45.320Z,9.60
2019-05-26T02:33:48.801Z,9.60
2019-05-26T02:36:52.381Z,9.60
2019-05-26T02:39:55.865Z,9.50
2019-05-26T02:42:59.341Z,9.50
2019-05-26T02:46:10.753Z,9.50
2019-05-26T02:49:14.316Z,9.50
2019-05-26T02:52:17.873Z,9.40
2019-05-26T02:55:21.604Z,9.50
2019-05-26T02:58:25.062Z,9.50
2019-05-26T03:01:29.058Z,9.50
2019-05-26T03:04:32.737Z,9.50
2019-05-26T03:07:38.405Z,9.50
2019-05-26T03:10:42.525Z,9.40
2019-05-26T03:13:48.121Z,9.40
2019-05-26T03:16:52.946Z,9.50
2019-05-26T03:19:58.338Z,9.40
2019-05-26T03:23:04.386Z,9.40
2019-05-26T03:26:09.728Z,9.40
2019-05-26T03:29:13.208Z,9.40
2019-05-26T03:32:16.830Z,9.50
2019-05-26T03:35:20.378Z,9.50
2019-05-26T03:38:23.920Z,9.50
2019-05-26T03:41:27.477Z,9.50
2019-05-26T03:44:30.935Z,9.60
2019-05-26T03:47:34.485Z,9.70
2019-05-26T03:50:37.969Z,9.80
2019-05-26T03:53:41.586Z,9.80
2019-05-26T03:56:45.076Z,10.00
2019-05-26T03:59:48.562Z,10.00
2019-05-26T04:02:52.104Z,10.10
2019-05-26T04:05:55.576Z,10.20
2019-05-26T04:08:59.110Z,10.30
2019-05-26T04:12:02.609Z,10.50
2019-05-26T04:15:07.313Z,10.50
2019-05-26T04:18:10.862Z,10.70
2019-05-26T04:21:14.413Z,10.80
2019-05-26T04:24:17.912Z,10.90
2019-05-26T04:27:21.382Z,10.90
2019-05-26T04:30:24.846Z,11.00
2019-05-26T04:33:28.320Z,11.00
2019-05-26T04:36:31.849Z,11.10
2019-05-26T04:39:35.344Z,11.20
2019-05-26T04:42:38.805Z,11.40
2019-05-26T04:45:42.288Z,11.60
2019-05-26T04:48:45.838Z,11.70
2019-05-26T04:51:49.285Z,12.00
2019-05-26T04:54:52.781Z,12.20
2019-05-26T04:57:56.231Z,12.40
2019-05-26T05:00:59.789Z,12.60
2019-05-26T05:04:03.338Z,12.90
2019-05-26T05:07:06.813Z,13.10
2019-05-26T05:10:10.908Z,13.30
2019-05-26T05:13:14.392Z,13.50
2019-05-26T05:16:17.841Z,13.80
2019-05-26T05:19:21.404Z,14.30
2019-05-26T05:22:24.927Z,15.20
2019-05-26T05:25:28.428Z,16.10
2019-05-26T05:28:31.891Z,17.20
2019-05-26T05:31:35.375Z,18.50
2019-05-26T05:34:38.849Z,20.00
2019-05-26T05:37:42.396Z,21.30
2019-05-26T05:40:58.773Z,22.40
2019-05-26T05:43:51.037Z,23.30
2019-05-26T05:46:54.533Z,23.60
2019-05-26T05:49:57.994Z,23.50
2019-05-26T05:53:01.479Z,23.90
2019-05-26T05:56:05.016Z,24.10
2019-05-26T05:59:08.628Z,24.50
2019-05-26T06:02:12.116Z,25.00
2019-05-26T06:05:15.833Z,25.20
2019-05-26T06:08:19.389Z,25.70
2019-05-26T06:11:22.932Z,25.40
2019-05-26T06:14:26.416Z,25.20
2019-05-26T06:17:30.031Z,25.50
2019-05-26T06:20:33.696Z,25.70
2019-05-26T06:23:37.288Z,25.50
2019-05-26T06:26:40.921Z,26.20
2019-05-26T06:29:57.885Z,26.60
2019-05-26T06:32:49.576Z,26.30
2019-05-26T06:35:53.032Z,26.30
2019-05-26T06:38:56.518Z,26.10
2019-05-26T06:41:59.973Z,25.80
2019-05-26T06:45:04.896Z,25.60
2019-05-26T06:48:08.714Z,25.30
2019-05-26T06:51:12.256Z,24.90
2019-05-26T06:54:15.809Z,25.10
2019-05-26T06:57:19.261Z,25.40
2019-05-26T07:00:22.823Z,25.60
2019-05-26T07:03:26.372Z,25.80
2019-05-26T07:06:29.857Z,25.90
2019-05-26T07:09:33.340Z,25.80
2019-05-26T07:12:37.093Z,25.60
2019-05-26T07:15:40.644Z,25.80
2019-05-26T07:18:44.128Z,25.70
2019-05-26T07:21:47.581Z,25.50
2019-05-26T07:24:51.073Z,25.60
2019-05-26T07:27:54.612Z,25.80
2019-05-26T07:30:58.164Z,25.60
2019-05-26T07:34:01.619Z,25.60
2019-05-26T07:37:05.220Z,25.70
2019-05-26T07:40:09.095Z,24.80
2019-05-26T07:43:12.572Z,25.20
2019-05-26T07:46:16.024Z,25.70
2019-05-26T07:49:19.504Z,26.60
2019-05-26T07:52:22.956Z,27.30
2019-05-26T07:55:26.504Z,27.70
2019-05-26T07:58:30.053Z,28.10
2019-05-26T08:01:36.330Z,27.90
2019-05-26T08:04:38.800Z,27.10
2019-05-26T08:07:42.301Z,26.50
2019-05-26T08:10:45.747Z,25.90
2019-05-26T08:13:49.228Z,25.10
2019-05-26T08:16:52.676Z,24.80
2019-05-26T08:19:56.968Z,25.10
2019-05-26T08:23:00.450Z,25.70
2019-05-26T08:26:03.969Z,25.30
2019-05-26T08:29:07.455Z,24.60
2019-05-26T08:32:10.977Z,24.00
2019-05-26T08:35:14.601Z,24.10
2019-05-26T08:38:18.095Z,23.90
2019-05-26T08:41:21.577Z,23.50
2019-05-26T08:44:25.054Z,22.80
2019-05-26T08:47:28.508Z,22.80
2019-05-26T08:50:34.295Z,23.30
2019-05-26T08:53:37.172Z,23.70
2019-05-26T08:56:40.661Z,24.30
2019-05-26T08:59:44.136Z,24.40
2019-05-26T09:02:47.662Z,24.50
2019-05-26T09:05:51.219Z,24.30
2019-05-26T09:08:54.705Z,24.20
2019-05-26T09:11:58.153Z,24.60
2019-05-26T09:15:01.644Z,24.70
2019-05-26T09:18:05.204Z,24.60
2019-05-26T09:21:08.765Z,24.00
2019-05-26T09:24:12.225Z,23.50
2019-05-26T09:27:15.715Z,23.40
2019-05-26T09:30:19.411Z,23.10
2019-05-26T09:33:22.964Z,22.80
2019-05-26T09:36:26.440Z,22.70
2019-05-26T09:39:29.925Z,22.80
2019-05-26T09:42:33.380Z,22.20
2019-05-26T09:45:36.864Z,21.70
2019-05-26T09:48:40.349Z,21.60
2019-05-26T09:51:43.814Z,21.60
2019-05-26T09:54:47.340Z,21.70
2019-05-26T09:57:51.001Z,21.70
2019-05-26T10:00:55.125Z,21.90
2019-05-26T10:03:58.612Z,21.80
2019-05-26T10:07:02.102Z,21.80
2019-05-26T10:10:07.604Z,21.70
2019-05-26T10:13:11.166Z,21.70
2019-05-26T10:16:14.764Z,21.60
2019-05-26T10:19:18.245Z,21.60
2019-05-26T10:22:21.728Z,21.60
2019-05-26T10:25:25.217Z,21.50
2019-05-26T10:28:28.664Z,21.70
2019-05-26T10:31:32.145Z,21.60
2019-05-26T10:34:35.591Z,21.60
2019-05-26T10:37:39.076Z,21.60
2019-05-26T10:40:42.532Z,21.60
2019-05-26T10:43:47.692Z,21.50
2019-05-26T10:46:51.235Z,21.20
2019-05-26T10:49:54.708Z,21.00
2019-05-26T10:52:58.266Z,21.00
2019-05-26T10:56:01.716Z,21.10
2019-05-26T10:59:07.357Z,21.30
2019-05-26T11:02:10.554Z,21.30
2019-05-26T11:05:14.493Z,21.00
2019-05-26T11:08:17.996Z,20.90
2019-05-26T11:11:21.477Z,21.00
2019-05-26T11:14:24.932Z,21.10
2019-05-26T11:17:28.425Z,21.10
2019-05-26T11:20:31.888Z,21.00
2019-05-26T11:23:35.450Z,21.00
2019-05-26T11:26:38.904Z,20.70
2019-05-26T11:29:42.393Z,20.70
2019-05-26T11:32:45.929Z,20.50
2019-05-26T11:35:49.414Z,20.60
2019-05-26T11:38:52.893Z,20.70
2019-05-26T11:41:56.422Z,20.80
2019-05-26T11:44:59.904Z,20.60
2019-05-26T11:48:03.464Z,20.60
2019-05-26T11:51:07.286Z,20.60
2019-05-26T11:54:10.765Z,20.60
2019-05-26T11:57:14.228Z,20.70
2019-05-26T12:00:18.217Z,20.80
2019-05-26T12:03:21.781Z,20.90
2019-05-26T12:06:25.265Z,21.00
2019-05-26T12:09:28.708Z,21.20
2019-05-26T12:12:32.197Z,21.40
2019-05-26T12:15:35.685Z,21.60
2019-05-26T12:18:39.233Z,21.70
2019-05-26T12:21:42.684Z,21.80
2019-05-26T12:24:46.171Z,21.60
2019-05-26T12:27:49.620Z,21.70
2019-05-26T12:30:53.101Z,21.40
2019-05-26T12:33:56.594Z,21.60
2019-05-26T12:37:00.073Z,21.50
2019-05-26T12:40:05.637Z,21.50
2019-05-26T12:43:09.265Z,21.50
2019-05-26T12:46:12.757Z,21.70
2019-05-26T12:49:16.276Z,21.80
2019-05-26T12:52:19.893Z,21.90
2019-05-26T12:55:23.353Z,22.00
2019-05-26T12:58:26.825Z,22.20
2019-05-26T13:01:30.281Z,22.20
2019-05-26T13:04:33.761Z,22.20
2019-05-26T13:07:37.446Z,22.10
2019-05-26T13:10:41.110Z,22.20
2019-05-26T13:13:44.588Z,22.40
2019-05-26T13:16:48.099Z,22.50
2019-05-26T13:19:51.621Z,22.30
2019-05-26T13:22:55.177Z,21.90
2019-05-26T13:25:58.700Z,21.60
2019-05-26T13:29:02.196Z,21.70
2019-05-26T13:32:05.717Z,21.80
2019-05-26T13:35:10.911Z,21.80
2019-05-26T13:38:14.364Z,21.90
2019-05-26T13:41:17.920Z,21.80
2019-05-26T13:44:21.473Z,21.60
2019-05-26T13:47:26.483Z,21.60
2019-05-26T13:50:30.184Z,21.70
2019-05-26T13:53:33.637Z,21.80
2019-05-26T13:56:37.117Z,21.80
2019-05-26T13:59:40.592Z,21.90
2019-05-26T14:02:44.181Z,21.80
2019-05-26T14:05:47.668Z,21.80
2019-05-26T14:08:51.144Z,21.80
2019-05-26T14:11:55.268Z,21.90
2019-05-26T14:14:58.755Z,21.90
2019-05-26T14:18:03.913Z,21.90
2019-05-26T14:21:07.396Z,21.90
2019-05-26T14:24:10.853Z,21.80
2019-05-26T14:27:14.328Z,21.90
2019-05-26T14:30:17.849Z,22.00
2019-05-26T14:33:21.468Z,22.00
2019-05-26T14:36:24.924Z,21.90
2019-05-26T14:39:28.409Z,21.80
2019-05-26T14:42:31.898Z,21.60
2019-05-26T14:45:35.794Z,21.60
2019-05-26T14:48:39.349Z,21.60
2019-05-26T14:51:42.797Z,21.50
2019-05-26T14:54:46.282Z,21.50
2019-05-26T14:57:49.796Z,21.40
2019-05-26T15:00:53.432Z,21.40
2019-05-26T15:03:56.904Z,21.50
2019-05-26T15:07:00.357Z,21.60
2019-05-26T15:10:06.586Z,21.50
2019-05-26T15:13:10.124Z,21.40
2019-05-26T15:16:13.589Z,21.40
2019-05-26T15:19:17.069Z,21.30
2019-05-26T15:22:20.660Z,21.20
2019-05-26T15:25:24.145Z,21.10
2019-05-26T15:28:27.629Z,21.20
2019-05-26T15:31:31.108Z,21.00
2019-05-26T15:34:34.593Z,20.90
2019-05-26T15:37:38.049Z,20.90
2019-05-26T15:40:41.529Z,21.00
2019-05-26T15:43:45.066Z,21.10
2019-05-26T15:46:48.745Z,21.20
2019-05-26T15:49:52.268Z,21.20
2019-05-26T15:52:55.752Z,21.10
2019-05-26T15:55:59.209Z,21.00
2019-05-26T15:59:02.696Z,20.90
2019-05-26T16:02:06.180Z,20.70
2019-05-26T16:05:10.276Z,20.60
2019-05-26T16:08:14.468Z,20.50
2019-05-26T16:11:18.023Z,20.50
2019-05-26T16:14:21.476Z,20.60
2019-05-26T16:17:24.965Z,20.60
2019-05-26T16:20:28.489Z,20.60
2019-05-26T16:23:31.960Z,20.70
2019-05-26T16:26:35.448Z,20.70
2019-05-26T16:29:38.904Z,20.70
2019-05-26T16:32:42.381Z,20.70
2019-05-26T16:35:45.837Z,20.70
2019-05-26T16:38:49.331Z,20.70
2019-05-26T16:41:52.880Z,20.60
2019-05-26T16:44:56.408Z,20.50
2019-05-26T16:47:59.973Z,20.40
2019-05-26T16:51:03.493Z,20.30
2019-05-26T16:54:07.053Z,20.20
2019-05-26T16:57:10.508Z,20.20
2019-05-26T17:00:15.273Z,20.30
2019-05-26T17:03:18.763Z,20.20
2019-05-26T17:06:22.217Z,20.00
2019-05-26T17:09:25.696Z,20.00
2019-05-26T17:12:29.150Z,19.90
2019-05-26T17:15:32.701Z,19.80
2019-05-26T17:18:36.154Z,19.70
2019-05-26T17:21:39.641Z,19.70
2019-05-26T17:24:43.091Z,19.60
2019-05-26T17:27:46.573Z,19.70
2019-05-26T17:30:50.124Z,19.70
2019-05-26T17:33:53.782Z,19.70
2019-05-26T17:36:57.329Z,19.70
2019-05-26T17:40:00.805Z,19.60
2019-05-26T17:43:04.634Z,19.50
2019-05-26T17:46:08.152Z,19.50
2019-05-26T17:49:11.640Z,19.40
2019-05-26T17:52:15.125Z,19.40
2019-05-26T17:55:20.204Z,19.30
2019-05-26T17:58:23.680Z,19.40
2019-05-26T18:01:27.177Z,19.30
2019-05-26T18:04:30.664Z,19.20
2019-05-26T18:07:34.114Z,19.20
2019-05-26T18:10:37.599Z,19.20
2019-05-26T18:13:41.061Z,19.10
2019-05-26T18:16:44.536Z,19.10
2019-05-26T18:19:47.998Z,19.10
2019-05-26T18:22:51.593Z,19.10
2019-05-26T18:25:55.152Z,19.00
2019-05-26T18:28:58.608Z,19.00
2019-05-26T18:32:02.446Z,19.00
2019-05-26T18:35:07.184Z,19.00
2019-05-26T18:38:10.757Z,18.80
2019-05-26T18:41:14.213Z,18.80
2019-05-26T18:44:17.972Z,18.80
2019-05-26T18:47:21.489Z,18.80
2019-05-26T18:50:25.045Z,18.80
2019-05-26T18:53:29.778Z,18.80
2019-05-26T18:56:33.717Z,18.80
2019-05-26T18:59:37.169Z,18.70
2019-05-26T19:02:40.657Z,18.70
2019-05-26T19:05:44.292Z,18.70
2019-05-26T19:08:47.817Z,18.60
2019-05-26T19:11:51.321Z,18.60
2019-05-26T19:14:54.774Z,18.60
2019-05-26T19:17:58.240Z,18.50
2019-05-26T19:21:01.728Z,18.40
2019-05-26T19:24:05.249Z,18.30
2019-05-26T19:27:08.820Z,18.30
2019-05-26T19:30:12.821Z,18.20
2019-05-26T19:33:16.412Z,18.20
2019-05-26T19:36:19.866Z,18.20
2019-05-26T19:39:23.364Z,18.20
2019-05-26T19:42:26.812Z,18.20
2019-05-26T19:45:30.297Z,18.20
2019-05-26T19:48:37.047Z,18.20
2019-05-26T19:51:38.957Z,18.10
2019-05-26T19:54:42.465Z,18.10
2019-05-26T19:57:45.958Z,18.20
2019-05-26T20:00:49.554Z,18.10
2019-05-26T20:03:53.116Z,18.00
2019-05-26T20:06:56.573Z,18.00
2019-05-26T20:10:00.091Z,17.90
2019-05-26T20:13:03.610Z,17.90
2019-05-26T20:16:07.298Z,17.80
2019-05-26T20:19:10.792Z,17.70
2019-05-26T20:22:14.255Z,17.70
2019-05-26T20:25:18.543Z,17.70
2019-05-26T20:28:22.007Z,17.60
2019-05-26T20:31:25.837Z,17.70
2019-05-26T20:34:29.304Z,17.60
2019-05-26T20:37:32.811Z,17.60
2019-05-26T20:40:36.256Z,17.60
2019-05-26T20:43:39.737Z,17.50
2019-05-26T20:46:43.224Z,17.50
2019-05-26T20:49:46.867Z,17.50
2019-05-26T20:52:50.469Z,17.50
2019-05-26T20:55:54.053Z,17.50
2019-05-26T20:58:57.544Z,17.50
2019-05-26T21:02:01.098Z,17.50
2019-05-26T21:05:06.332Z,17.50
2019-05-26T21:08:09.852Z,17.50
2019-05-26T21:11:13.338Z,17.60
2019-05-26T21:14:16.790Z,17.60
2019-05-26T21:17:20.270Z,17.60
2019-05-26T21:20:23.845Z,17.60
2019-05-26T21:23:27.388Z,17.60
2019-05-26T21:26:30.840Z,17.60
2019-05-26T21:29:34.333Z,17.60
2019-05-26T21:32:37.896Z,17.60
2019-05-26T21:35:41.360Z,17.60
2019-05-26T21:38:44.964Z,17.50
2019-05-26T21:41:48.492Z,17.50
2019-05-26T21:44:52.124Z,17.50
2019-05-26T21:47:55.643Z,17.50
2019-05-26T21:50:59.112Z,17.50
2019-05-26T21:54:02.565Z,17.50
2019-05-26T21:57:07.658Z,17.60
2019-05-26T22:00:13.201Z,17.50
2019-05-26T22:03:16.821Z,17.50
2019-05-26T22:06:20.364Z,17.40
2019-05-26T22:09:23.824Z,17.40
2019-05-26T22:12:27.305Z,17.40
2019-05-26T22:15:30.798Z,17.40
2019-05-26T22:18:34.318Z,17.40
2019-05-26T22:21:37.800Z,17.30
2019-05-26T22:24:41.283Z,17.40
2019-05-26T22:27:44.765Z,17.30
2019-05-26T22:30:48.238Z,17.30
2019-05-26T22:33:51.785Z,17.40
2019-05-26T22:36:55.233Z,17.30
2019-05-26T22:39:58.717Z,17.30
2019-05-26T22:43:02.208Z,17.20
2019-05-26T22:46:05.660Z,17.20
2019-05-26T22:49:09.153Z,17.20
2019-05-26T22:52:12.831Z,17.20
2019-05-26T22:55:16.558Z,17.10
2019-05-26T22:58:20.041Z,17.10
2019-05-26T23:01:23.632Z,17.10
2019-05-26T23:04:27.189Z,17.00
2019-05-26T23:07:30.730Z,17.00
2019-05-26T23:10:34.281Z,17.00
2019-05-26T23:13:37.770Z,17.00
2019-05-26T23:16:41.316Z,17.00
2019-05-26T23:19:44.808Z,17.00
2019-05-26T23:22:48.307Z,17.00
2019-05-26T23:25:51.760Z,17.00
2019-05-26T23:28:55.261Z,16.90
2019-05-26T23:31:58.720Z,16.90
2019-05-26T23:35:02.231Z,16.90
2019-05-26T23:38:05.756Z,16.80
2019-05-26T23:41:09.240Z,16.80
2019-05-26T23:44:12.760Z,16.80
2019-05-26T23:47:16.253Z,16.80
2019-05-26T23:50:19.807Z,16.70
2019-05-26T23:53:23.256Z,16.70
2019-05-26T23:56:26.736Z,16.70
2019-05-26T23:59:30.196Z,16.60
